Terminal Aerodrome Forecast
Issued by NWS Chicago, IL

Home | Current Version | Previous Version | Graphics & Text | Print | Product List | Glossary On
Versions: 1 2 3 4 5 6 7 8 9 10 11 12 13 14 15 16 17 18 19 20 21 22 23 24 25 26 27
437
FTUS43 KLOT 201733
TAFRFD
TAF
KRFD 201733Z 2018/2118 19010KT P6SM VCSH SCT070 BKN250
     FM202100 19010KT P6SM BKN250
     FM210100 17005KT P6SM BKN120
     FM211200 20008KT P6SM SHRA VCTS BKN035 OVC060CB
     FM211600 21008KT P6SM BKN100=

USA.gov is the U.S. government's official web portal to all federal, state and local government web resources and services.